• Join FlightAware (Why Join?)
  • Login
  • US Flag 
05:38AM EDT


 

Airport Tracker/Info


-or-


 

Live Flight TrackerFlight Track Log ✈ DAL129 ✈ 05-May-2012 ✈ KSEA - ZBAA / PEK

Flight Track Log - Related Links

Times and Time Zones

All times are in EDT time to prevent confusion due to time zone crossing. See the DAL129 flight status page for this flight to view local times or setup timezone preferences in your user account.

Time Position Orientation Groundspeed Altitude Reporting Facility
EDT Latitude Longitude Course Direction KTS MPH feet Rate Location/Type
10:22PM 47.4239 -122.3100 179° South 197 227 1,100  Level Seattle Center
10:23PM 47.3903 -122.3089 181° South 186 214 2,700 1,920 Climbing Seattle Center
10:24PM 47.3350 -122.3100 230° Southwest 198 228 4,300 1,740 Climbing Seattle Center
10:25PM 47.2933 -122.3819 270° West 259 298 6,300 2,220 Climbing Seattle Center
10:26PM 47.2936 -122.4797 301° West 268 308 8,700 1,740 Climbing Seattle Center
10:27PM 47.3347 -122.5797 312° West 272 313 10,000 1,260 Climbing Seattle Center
10:28PM 47.3864 -122.6658 312° West 288 331 11,500 1,380 Climbing Seattle Center
10:29PM 47.4500 -122.7700 315° West 347 399 12,900 1,800 Climbing Seattle Center
10:30PM 47.5211 -122.8747 320° Northwest 363 418 15,200 2,160 Climbing Seattle Center
10:31PM 47.6006 -122.9744 318° Northwest 377 434 17,300 1,920 Climbing Seattle Center
10:32PM 47.6967 -123.1025 317° Northwest 388 447 19,100 1,860 Climbing Seattle Center
10:33PM 47.7761 -123.2117 318° Northwest 391 450 21,100 1,860 Climbing Seattle Center
10:34PM 47.8583 -123.3206 318° Northwest 397 457 22,900 1,560 Climbing Seattle Center
10:35PM 47.9406 -123.4314 319° Northwest 400 460 24,300 1,440 Climbing Seattle Center
10:36PM 48.0239 -123.5417 318° Northwest 403 464 25,900 1,800 Climbing Seattle Center
10:37PM 48.1119 -123.6608 318° Northwest 408 470 28,000 1,800 Climbing Seattle Center
10:38PM 48.1928 -123.7697 318° Northwest 397 457 29,600 900 Climbing Seattle Center
10:39PM 48.2733 -123.8786 314° West 392 451 29,900 120 Climbing Seattle Center
10:41PM 48.3833 -124.0500 315° West 390 449 30,000  Climbing Vancouver Center
10:42PM 48.4500 -124.1500 313° West 390 449 30,000  Level Vancouver Center
10:43PM 48.5333 -124.2833 322° Northwest 390 449 30,000  Level Vancouver Center
10:44PM 48.6167 -124.3833 317° Northwest 400 460 30,000  Level Vancouver Center
10:45PM 48.7000 -124.5000 317° Northwest 400 460 30,000  Level Vancouver Center
10:46PM 48.7833 -124.6167 322° Northwest 400 460 30,000  Level Vancouver Center
10:47PM 48.8667 -124.7167 317° Northwest 400 460 30,000  Level Vancouver Center
10:48PM 48.9500 -124.8333 311° West 400 460 30,000  Level Vancouver Center
10:49PM 49.0167 -124.9500 323° Northwest 390 449 30,000  Level Vancouver Center
10:50PM 49.1167 -125.0667 311° West 400 460 30,000  Level Vancouver Center
10:51PM 49.1833 -125.1833 314° West 400 460 30,000  Level Vancouver Center
10:52PM 49.2667 -125.3167 322° Northwest 400 460 30,000  Level Vancouver Center
10:53PM 49.3500 -125.4167 314° West 400 460 30,000  Level Vancouver Center
10:54PM 49.4333 -125.5500 316° Northwest 400 460 30,000  Level Vancouver Center
10:55PM 49.5000 -125.6500 314° West 400 460 30,000  Level Vancouver Center
10:56PM 49.5833 -125.7833 322° Northwest 400 460 30,000  Level Vancouver Center
10:57PM 49.6667 -125.8833 318° Northwest 400 460 30,000  Level Vancouver Center
10:58PM 49.7500 -126.0000 320° Northwest 400 460 30,000  Level Vancouver Center
11:05PM 50.3941 -126.9674 320° Northwest  Level FlightAware Approximate
11:06PM 50.4814 -127.1006 320° Northwest  Level FlightAware Approximate
11:07PM 50.5685 -127.2344 320° Northwest  Level FlightAware Approximate
11:08PM 50.6554 -127.3687 320° Northwest  Level FlightAware Approximate
11:09PM 50.7421 -127.5035 320° Northwest  Level FlightAware Approximate
11:10PM 50.8288 -127.6387 320° Northwest  Level FlightAware Approximate
11:11PM 50.9152 -127.7745 320° Northwest  Level FlightAware Approximate
11:12PM 51.0015 -127.9108 319° Northwest  Level FlightAware Approximate
11:13PM 51.0877 -128.0476 319° Northwest  Level FlightAware Approximate
11:14PM 51.1736 -128.1849 319° Northwest  Level FlightAware Approximate
11:15PM 51.2595 -128.3227 319° Northwest  Level FlightAware Approximate
11:16PM 51.3451 -128.4610 319° Northwest  Level FlightAware Approximate
11:17PM 51.4306 -128.5999 319° Northwest  Level FlightAware Approximate
11:18PM 51.5159 -128.7392 319° Northwest  Level FlightAware Approximate
11:19PM 51.6011 -128.8791 319° Northwest  Level FlightAware Approximate
11:20PM 51.6861 -129.0195 319° Northwest  Level FlightAware Approximate
11:21PM 51.7709 -129.1604 319° Northwest  Level FlightAware Approximate
11:22PM 51.8556 -129.3019 319° Northwest  Level FlightAware Approximate
11:23PM 51.9401 -129.4439 319° Northwest  Level FlightAware Approximate
11:24PM 52.0244 -129.5865 319° Northwest  Level FlightAware Approximate
11:25PM 52.1085 -129.7295 319° Northwest  Level FlightAware Approximate
11:26PM 52.2006 -129.8594 319° Northwest  Level FlightAware Approximate
11:27PM 52.2925 -129.9898 319° Northwest  Level FlightAware Approximate
11:28PM 52.3842 -130.1207 319° Northwest  Level FlightAware Approximate
11:29PM 52.4758 -130.2522 319° Northwest  Level FlightAware Approximate
11:30PM 52.5673 -130.3842 318° Northwest  Level FlightAware Approximate
11:31PM 52.6586 -130.5168 318° Northwest  Level FlightAware Approximate
11:32PM 52.7497 -130.6499 318° Northwest  Level FlightAware Approximate
11:33PM 52.8407 -130.7836 318° Northwest  Level FlightAware Approximate
11:34PM 52.9316 -130.9178 318° Northwest  Level FlightAware Approximate
11:35PM 53.0223 -131.0526 318° Northwest  Level FlightAware Approximate
11:36PM 53.1129 -131.1880 318° Northwest  Level FlightAware Approximate
11:37PM 53.2033 -131.3239 318° Northwest  Level FlightAware Approximate
11:38PM 53.2935 -131.4605 318° Northwest  Level FlightAware Approximate
11:39PM 53.3836 -131.5976 317° Northwest  Level FlightAware Approximate
11:40PM 53.4735 -131.7352 317° Northwest  Level FlightAware Approximate
11:41PM 53.5633 -131.8735 317° Northwest  Level FlightAware Approximate
11:42PM 53.6529 -132.0124 317° Northwest  Level FlightAware Approximate
11:43PM 53.7423 -132.1518 317° Northwest  Level FlightAware Approximate
11:44PM 53.8316 -132.2918 317° Northwest  Level FlightAware Approximate
11:45PM 53.9207 -132.4325 317° Northwest  Level FlightAware Approximate
11:46PM 54.0097 -132.5737 317° Northwest  Level FlightAware Approximate
11:47PM 54.0985 -132.7155 316° Northwest  Level FlightAware Approximate
11:48PM 54.1871 -132.8580 316° Northwest  Level FlightAware Approximate
11:49PM 54.2756 -133.0011 316° Northwest  Level FlightAware Approximate
11:50PM 54.3638 -133.1447 316° Northwest  Level FlightAware Approximate
11:51PM 54.4519 -133.2890 316° Northwest  Level FlightAware Approximate
11:52PM 54.5389 -133.4356 316° Northwest  Level FlightAware Approximate
11:53PM 54.6258 -133.5828 316° Northwest  Level FlightAware Approximate
11:54PM 54.7124 -133.7307 316° Northwest  Level FlightAware Approximate
11:55PM 54.7960 -133.8741 315° West  Level FlightAware Approximate
11:56PM 54.8793 -134.0182 315° West  Level FlightAware Approximate
11:57PM 54.9626 -134.1629 315° West  Level FlightAware Approximate
11:58PM 55.0456 -134.3081 315° West  Level FlightAware Approximate
11:59PM 55.1285 -134.4540 315° West  Level FlightAware Approximate
12:00AM 55.2112 -134.6005 315° West  Level FlightAware Approximate
12:01AM 55.2937 -134.7476 315° West  Level FlightAware Approximate
12:02AM 55.3760 -134.8953 315° West  Level FlightAware Approximate
12:03AM 55.4582 -135.0436 315° West  Level FlightAware Approximate
12:04AM 55.5402 -135.1925 315° West  Level FlightAware Approximate
12:05AM 55.6220 -135.3421 314° West  Level FlightAware Approximate
12:06AM 55.7036 -135.4922 314° West  Level FlightAware Approximate
12:07AM 55.7851 -135.6430 314° West  Level FlightAware Approximate
12:08AM 55.8663 -135.7945 314° West  Level FlightAware Approximate
12:09AM 55.9474 -135.9465 314° West  Level FlightAware Approximate
12:10AM 56.0283 -136.0993 314° West  Level FlightAware Approximate
12:11AM 56.1090 -136.2526 314° West  Level FlightAware Approximate
12:12AM 56.1894 -136.4066 314° West  Level FlightAware Approximate
12:13AM 56.2697 -136.5612 314° West  Level FlightAware Approximate
12:14AM 56.3499 -136.7165 313° West  Level FlightAware Approximate
12:15AM 56.4298 -136.8725 313° West  Level FlightAware Approximate
12:16AM 56.5095 -137.0291 313° West  Level FlightAware Approximate
12:17AM 56.5890 -137.1863 313° West  Level FlightAware Approximate
12:18AM 56.6683 -137.3443 313° West  Level FlightAware Approximate
12:19AM 56.7475 -137.5028 313° West  Level FlightAware Approximate
12:20AM 56.8264 -137.6621 313° West  Level FlightAware Approximate
12:21AM 56.9051 -137.8220 313° West  Level FlightAware Approximate
12:22AM 56.9836 -137.9826 313° West  Level FlightAware Approximate
12:23AM 57.0619 -138.1439 313° West  Level FlightAware Approximate
12:24AM 57.1400 -138.3059 313° West  Level FlightAware Approximate
12:25AM 57.2179 -138.4685 313° West  Level FlightAware Approximate
12:26AM 57.2956 -138.6318 314° West  Level FlightAware Approximate
12:27AM 57.3731 -138.7959 314° West  Level FlightAware Approximate
12:28AM 57.4503 -138.9606 315° West  Level FlightAware Approximate
12:29AM 57.5273 -139.1260 317° Northwest  Level FlightAware Approximate
12:30AM 57.6041 -139.2921 327° Northwest  Level FlightAware Approximate
12:31AM 57.6807 -139.4589 106° East  Level FlightAware Approximate
12:32AM 57.7571 -139.6264 123° Southeast  Level FlightAware Approximate
12:33AM 57.8333 -139.7946 126° Southeast  Level FlightAware Approximate
12:34AM 57.9092 -139.9636 127° Southeast  Level FlightAware Approximate
12:34AM 57.6667 -139.3667 313° West 440 506 32,000  Level Anchorage Center
12:39AM 58.1000 -140.2500 311° West 440 506 32,000  Level Anchorage Center
12:40AM 58.1833 -140.4333 305° West 440 506 32,000  Level Anchorage Center
12:41AM 58.2500 -140.6167 311° West 440 506 32,000  Level Anchorage Center
12:42AM 58.3333 -140.8000 305° West 440 506 32,000  Level Anchorage Center
12:43AM 58.4000 -140.9833 311° West 440 506 32,000  Level Anchorage Center
12:44AM 58.4833 -141.1667 311° West 440 506 32,000  Level Anchorage Center
12:45AM 58.5667 -141.3500 303° West 450 518 32,000  Level Anchorage Center
12:46AM 58.6333 -141.5500 307° West 450 518 32,000  Level Anchorage Center
12:48AM 58.7833 -141.9333 311° West 450 518 32,000  Level Anchorage Center
12:49AM 58.8667 -142.1167 303° West 450 518 32,000  Level Anchorage Center
12:50AM 58.9333 -142.3167 311° West 450 518 32,000  Level Anchorage Center
12:51AM 59.0167 -142.5000 309° West 440 506 32,000  Level Anchorage Center
12:52AM 59.1000 -142.7000 303° West 450 518 32,000  Level Anchorage Center
12:53AM 59.1667 -142.9000 309° West 440 506 32,000  Level Anchorage Center
12:54AM 59.2500 -143.1000 306° West 450 518 32,000  Level Anchorage Center
12:55AM 59.3167 -143.2833 309° West 440 506 32,000  Level Anchorage Center
12:56AM 59.4000 -143.4833 303° West 440 506 32,000  Level Anchorage Center
12:57AM 59.4667 -143.6833 303° West 450 518 32,000  Level Anchorage Center
12:58AM 59.5333 -143.8833 301° West 440 506 32,000  Level Anchorage Center
12:59AM 59.6000 -144.1000 303° West 440 506 32,000  Level Anchorage Center
01:00AM 59.6667 -144.3000 301° West 430 495 32,000  Level Anchorage Center
01:01AM 59.7333 -144.5167 304° West 450 518 32,000  Level Anchorage Center
01:02AM 59.8000 -144.7167 302° West 450 518 32,000  Level Anchorage Center
01:03AM 59.8667 -144.9333 297° West 440 506 32,000  Level Anchorage Center
01:04AM 59.9167 -145.1333 302° West 440 506 32,000  Level Anchorage Center
01:05AM 59.9833 -145.3500 302° West 440 506 32,000  Level Anchorage Center
01:06AM 60.0500 -145.5667 304° West 440 506 32,000  Level Anchorage Center
01:07AM 60.1167 -145.7667 302° West 450 518 32,000  Level Anchorage Center
01:08AM 60.1833 -145.9833 295° West 440 506 32,000  Level Anchorage Center
01:09AM 60.2333 -146.2000 302° West 440 506 32,000  Level Anchorage Center
01:10AM 60.3000 -146.4167 304° West 440 506 32,000  Level Anchorage Center
01:11AM 60.3667 -146.6167 302° West 440 506 32,000  Level Anchorage Center
01:12AM 60.4333 -146.8333 295° West 450 518 32,000  Level Anchorage Center
01:13AM 60.4833 -147.0500 300° West 440 506 32,000  Level Anchorage Center
01:14AM 60.5500 -147.2833 304° West 450 518 32,000  Level Anchorage Center
01:15AM 60.6333 -147.5333 295° West 450 518 32,000  Level Anchorage Center
01:16AM 60.6833 -147.7500 300° West 450 518 32,000  Level Anchorage Center
01:17AM 60.7500 -147.9833 295° West 450 518 32,000  Level Anchorage Center
01:18AM 60.8000 -148.2000 300° West 440 506 32,000  Level Anchorage Center
01:19AM 60.8667 -148.4333 295° West 450 518 32,000  Level Anchorage Center
01:20AM 60.9167 -148.6500 301° West 450 518 32,000  Level Anchorage Center
01:21AM 60.9833 -148.8833 301° West 450 518 32,000  Level Anchorage Center
01:22AM 61.0500 -149.1167 296° West 450 518 32,000  Level Anchorage Center
01:23AM 61.1000 -149.3333 297° West 440 506 32,000  Level Anchorage Center
01:24AM 61.1667 -149.6000 294° West 450 518 32,000  Level Anchorage Center
01:25AM 61.2167 -149.8333 303° West 440 506 32,000  Level Anchorage Center
01:26AM 61.2833 -150.0500 294° West 430 495 32,000  Level Anchorage Center
01:27AM 61.3333 -150.2833 294° West 450 518 32,000  Level Anchorage Center
01:28AM 61.3833 -150.5167 298° West 450 518 32,000 360 Level Anchorage Center
01:29AM 61.4333 -150.7167 296° West 440 506 32,800 960 Climbing Anchorage Center
01:30AM 61.5000 -151.0000 301° West 450 518 34,000 600 Climbing Anchorage Center
01:31AM 61.5667 -151.2333 294° West 450 518 34,000  Level Anchorage Center
01:32AM 61.6167 -151.4667 294° West 450 518 34,000  Level Anchorage Center
01:33AM 61.6667 -151.7000 299° West 450 518 34,000  Level Anchorage Center
01:34AM 61.7333 -151.9500 293° West 450 518 34,000  Level Anchorage Center
01:35AM 61.7833 -152.2000 293° West 460 529 34,000  Level Anchorage Center
01:36AM 61.8333 -152.4500 298° West 470 541 34,000  Level Anchorage Center
01:38AM 61.9000 -152.7167 298° West 470 541 34,000  Level Anchorage Center
01:39AM 61.9500 -152.9167 292° West 460 529 34,000  Level Anchorage Center
01:40AM 62.0000 -153.1833 293° West 470 541 34,000  Level Anchorage Center
01:41AM 62.0500 -153.4333 293° West 470 541 34,000  Level Anchorage Center
01:42AM 62.1000 -153.6833 292° West 470 541 34,000  Level Anchorage Center
01:43AM 62.1500 -153.9500 300° West 450 518 34,000  Level Anchorage Center
01:44AM 62.2167 -154.2000 293° West 460 529 34,000  Level Anchorage Center
01:45AM 62.2667 -154.4500 293° West 450 518 34,000  Level Anchorage Center
01:46AM 62.3167 -154.7000 293° West 460 529 34,000  Level Anchorage Center
01:47AM 62.3667 -154.9500 293° West 450 518 34,000  Level Anchorage Center
01:48AM 62.4167 -155.2000 292° West 460 529 34,000  Level Anchorage Center
01:49AM 62.4667 -155.4667 294° West 450 518 34,000  Level Anchorage Center
01:50AM 62.5167 -155.7167 285° West 460 529 34,000  Level Anchorage Center
01:51AM 62.5500 -155.9833 292° West 460 529 34,000  Level Anchorage Center
01:52AM 62.6000 -156.2500 294° West 450 518 34,000  Level Anchorage Center
01:53AM 62.6500 -156.5000 292° West 450 518 34,000  Level Anchorage Center
01:54AM 62.7000 -156.7667 292° West 460 529 34,000  Level Anchorage Center
01:55AM 62.7500 -157.0333 285° West 460 529 34,000  Level Anchorage Center
01:56AM 62.7833 -157.3000 292° West 460 529 34,000  Level Anchorage Center
01:57AM 62.8333 -157.5667 293° West 460 529 34,000  Level Anchorage Center
01:59AM 62.9333 -158.0833 285° West 460 529 34,000  Level Anchorage Center
02:00AM 62.9667 -158.3667 294° West 460 529 34,000  Level Anchorage Center
02:01AM 63.0167 -158.6167 285° West 460 529 34,000  Level Anchorage Center
02:02AM 63.0500 -158.9000 293° West 460 529 34,000  Level Anchorage Center
02:03AM 63.1000 -159.1667 293° West 460 529 34,000  Level Anchorage Center
02:04AM 63.1500 -159.4333 286° West 460 529 34,000  Level Anchorage Center
02:05AM 63.1833 -159.7000 292° West 460 529 34,000  Level Anchorage Center
02:06AM 63.2333 -159.9833 286° West 460 529 34,000  Level Anchorage Center
02:07AM 63.2667 -160.2500 286° West 460 529 34,000  Level Anchorage Center
02:08AM 63.3000 -160.5167 292° West 460 529 34,000  Level Anchorage Center
02:09AM 63.3500 -160.8000 286° West 460 529 34,000  Level Anchorage Center
02:10AM 63.3833 -161.0667 286° West 460 529 34,000  Level Anchorage Center
02:11AM 63.4167 -161.3333 285° West 460 529 34,000  Level Anchorage Center
02:12AM 63.4500 -161.6167 293° West 460 529 34,000  Level Anchorage Center
02:13AM 63.5000 -161.8833 285° West 460 529 34,000  Level Anchorage Center
02:14AM 63.5333 -162.1667 286° West 460 529 34,000  Level Anchorage Center
02:15AM 63.5667 -162.4333 285° West 450 518 34,000  Level Anchorage Center
02:16AM 63.6000 -162.7167 286° West 460 529 34,000  Level Anchorage Center
02:17AM 63.6333 -162.9833 289° West 450 518 34,000  Level Anchorage Center
02:18AM 63.6833 -163.3167 278° West 460 529 34,000  Level Anchorage Center
02:19AM 63.7000 -163.6000 286° West 460 529 34,000  Level Anchorage Center
02:21AM 63.7667 -164.1500 286° West 460 529 34,000  Level Anchorage Center
02:22AM 63.8000 -164.4167 285° West 450 518 34,000  Level Anchorage Center
02:23AM 63.8333 -164.7000 285° West 460 529 34,000  Level Anchorage Center
02:24AM 63.8667 -164.9833 285° West 460 529 34,000  Level Anchorage Center
02:27AM 63.9667 -165.8500 283° West 450 518 34,000  Level Anchorage Center
02:32AM 64.1000 -167.2667 278° West 460 529 34,000  Level Anchorage Center
02:33AM 64.1167 -167.5500 285° West 450 518 34,000  Level Anchorage Center
02:34AM 64.1500 -167.8333 278° West 450 518 34,000  Level Anchorage Center
02:35AM 64.1667 -168.1167 286° West 450 518 34,000  Level Anchorage Center
02:36AM 64.2000 -168.3833 277° West 450 518 34,000  Level Anchorage Center
02:37AM 64.2167 -168.6833 278° West 460 529 34,000  Level Anchorage Center
02:38AM 64.2333 -168.9667 285° West 450 518 34,000  Level Anchorage Center
02:39AM 64.2667 -169.2500 278° West 450 518 34,000  Level Anchorage Center
02:40AM 64.2833 -169.5333 278° West 450 518 34,000  Level Anchorage Center
02:41AM 64.3000 -169.8167 285° West 450 518 34,000  Level Anchorage Center
02:42AM 64.3333 -170.1167 278° West 460 529 34,000  Level Anchorage Center
02:43AM 64.3500 -170.4000 278° West 450 518 34,000  Level Anchorage Center
02:44AM 64.3667 -170.6833 277° West 450 518 34,000  Level Anchorage Center
02:45AM 64.3833 -170.9833 270° West 460 529 34,000  Level Anchorage Center
02:52AM 64.3676 -173.0320 270° West  Level FlightAware Approximate
02:53AM 64.3670 -173.3186 279° West  Level FlightAware Approximate
02:54AM 64.3871 -173.6015 279° West  Level FlightAware Approximate
02:55AM 64.4067 -173.8849 279° West  Level FlightAware Approximate
02:56AM 64.4258 -174.1686 279° West  Level FlightAware Approximate
02:57AM 64.4443 -174.4527 279° West  Level FlightAware Approximate
02:58AM 64.4626 -174.7371 278° West  Level FlightAware Approximate
02:59AM 64.4804 -175.0219 278° West  Level FlightAware Approximate
03:00AM 64.4977 -175.3070 278° West  Level FlightAware Approximate
03:01AM 64.5144 -175.5924 248° West  Level FlightAware Approximate
03:02AM 64.4700 -175.8520 278° West  Level FlightAware Approximate
03:03AM 64.4871 -176.1371 278° West  Level FlightAware Approximate
03:04AM 64.5037 -176.4225 278° West  Level FlightAware Approximate
03:05AM 64.5197 -176.7082 277° West  Level FlightAware Approximate
03:06AM 64.5351 -176.9943 279° West  Level FlightAware Approximate
03:07AM 64.5539 -177.2794 277° West  Level FlightAware Approximate
03:08AM 64.5682 -177.5661 276° West  Level FlightAware Approximate
03:09AM 64.5818 -177.8532 276° West  Level FlightAware Approximate
03:10AM 64.5949 -178.1405 276° West  Level FlightAware Approximate
03:11AM 64.6075 -178.4281 276° West  Level FlightAware Approximate
03:12AM 64.6195 -178.7160 275° West  Level FlightAware Approximate
03:13AM 64.6309 -179.0042 275° West  Level FlightAware Approximate
03:14AM 64.6418 -179.2925 275° West  Level FlightAware Approximate
03:15AM 64.6521 -179.5811 275° West  Level FlightAware Approximate
03:16AM 64.6618 -179.8699 273° West  Level FlightAware Approximate
03:17AM 64.6683 179.8407 274° West  Level FlightAware Approximate
03:18AM 64.6772 179.5516 274° West  Level FlightAware Approximate
03:19AM 64.6855 179.2623 274° West  Level FlightAware Approximate
03:20AM 64.6932 178.9728 273° West  Level FlightAware Approximate
03:21AM 64.7004 178.6832 273° West  Level FlightAware Approximate
03:22AM 64.7070 178.3934 273° West  Level FlightAware Approximate
03:23AM 64.7131 178.1035 273° West  Level FlightAware Approximate
03:24AM 64.7186 177.8135 278° West  Level FlightAware Approximate
03:25AM 64.7360 177.5302 267° West  Level FlightAware Approximate
03:26AM 64.7294 177.2401 267° West  Level FlightAware Approximate
03:27AM 64.7222 176.9501 267° West  Level FlightAware Approximate
03:28AM 64.7145 176.6604 266° West  Level FlightAware Approximate
03:29AM 64.7061 176.3708 266° West  Level FlightAware Approximate
03:30AM 64.6973 176.0813 266° West  Level FlightAware Approximate
03:31AM 64.6878 175.7921 265° West  Level FlightAware Approximate
03:32AM 64.6778 175.5031 265° West  Level FlightAware Approximate
03:33AM 64.6672 175.2143 265° West  Level FlightAware Approximate
03:34AM 64.6561 174.9257 265° West  Level FlightAware Approximate
03:35AM 64.6443 174.6374 264° West  Level FlightAware Approximate
03:36AM 64.6321 174.3493 264° West  Level FlightAware Approximate
03:37AM 64.6192 174.0615 264° West  Level FlightAware Approximate
03:38AM 64.6059 173.7740 264° West  Level FlightAware Approximate
03:39AM 64.5919 173.4867 263° West  Level FlightAware Approximate
03:40AM 64.5774 173.1998 263° West  Level FlightAware Approximate
03:41AM 64.5623 172.9131 263° West  Level FlightAware Approximate
03:42AM 64.5467 172.6268 261° West  Level FlightAware Approximate
03:43AM 64.5269 172.3421 261° West  Level FlightAware Approximate
03:44AM 64.5065 172.0579 260° West  Level FlightAware Approximate
03:45AM 64.4855 171.7740 260° West  Level FlightAware Approximate
03:46AM 64.4640 171.4906 260° West  Level FlightAware Approximate
03:47AM 64.4419 171.2077 260° West  Level FlightAware Approximate
03:48AM 64.4193 170.9252 256° West  Level FlightAware Approximate
03:49AM 64.3890 170.6469 256° West  Level FlightAware Approximate
03:50AM 64.3580 170.3693 255° West  Level FlightAware Approximate
03:51AM 64.3266 170.0923 255° West  Level FlightAware Approximate
03:52AM 64.2946 169.8159 255° West  Level FlightAware Approximate
03:53AM 64.2622 169.5401 255° West  Level FlightAware Approximate
03:54AM 64.2292 169.2650 254° West  Level FlightAware Approximate
03:55AM 64.1956 168.9906 254° West  Level FlightAware Approximate
03:56AM 64.1616 168.7169 254° West  Level FlightAware Approximate
03:57AM 64.1271 168.4438 254° West  Level FlightAware Approximate
03:58AM 64.0920 168.1714 253° West  Level FlightAware Approximate
03:59AM 64.0565 167.8997 249° West  Level FlightAware Approximate
04:00AM 64.0122 167.6351 249° West  Level FlightAware Approximate
04:01AM 63.9675 167.3714 249° West  Level FlightAware Approximate
04:02AM 63.9223 167.1085 249° West  Level FlightAware Approximate
04:03AM 63.8766 166.8464 248° West  Level FlightAware Approximate
04:04AM 63.8305 166.5852 248° West  Level FlightAware Approximate
04:05AM 63.7839 166.3249 248° West  Level FlightAware Approximate
04:06AM 63.7368 166.0654 248° West  Level FlightAware Approximate
04:07AM 63.6893 165.8069 247° West  Level FlightAware Approximate
04:08AM 63.6413 165.5491 247° West  Level FlightAware Approximate
04:09AM 63.5928 165.2923 247° West  Level FlightAware Approximate
04:10AM 63.5439 165.0363 247° West  Level FlightAware Approximate
04:11AM 63.4945 164.7812 246° West  Level FlightAware Approximate
04:12AM 63.4446 164.5270 246° West  Level FlightAware Approximate
04:13AM 63.3944 164.2737 246° West  Level FlightAware Approximate
04:14AM 63.3437 164.0213 246° West  Level FlightAware Approximate
04:15AM 63.2925 163.7697 246° West  Level FlightAware Approximate
04:16AM 63.2409 163.5191 245° Southwest  Level FlightAware Approximate
04:17AM 63.1888 163.2693 245° Southwest  Level FlightAware Approximate
04:18AM 63.1363 163.0205 245° Southwest  Level FlightAware Approximate
04:19AM 63.0834 162.7726 245° Southwest  Level FlightAware Approximate
04:20AM 63.0300 162.5255 244° Southwest  Level FlightAware Approximate
04:21AM 62.9763 162.2794 244° Southwest  Level FlightAware Approximate
04:22AM 62.9221 162.0341 244° Southwest  Level FlightAware Approximate
04:23AM 62.8674 161.7898 244° Southwest  Level FlightAware Approximate
04:24AM 62.8124 161.5464 244° Southwest  Level FlightAware Approximate
04:25AM 62.7569 161.3039 243° Southwest  Level FlightAware Approximate
04:26AM 62.7010 161.0623 243° Southwest  Level FlightAware Approximate
04:27AM 62.6447 160.8217 243° Southwest  Level FlightAware Approximate
04:28AM 62.5880 160.5819 243° Southwest  Level FlightAware Approximate
04:29AM 62.5309 160.3431 242° Southwest  Level FlightAware Approximate
04:30AM 62.4734 160.1052 241° Southwest  Level FlightAware Approximate
04:31AM 62.4138 159.8701 241° Southwest  Level FlightAware Approximate
04:32AM 62.3539 159.6358 241° Southwest  Level FlightAware Approximate
04:33AM 62.2936 159.4026 241° Southwest  Level FlightAware Approximate
04:34AM 62.2329 159.1702 241° Southwest  Level FlightAware Approximate
04:35AM 62.1718 158.9388 240° Southwest  Level FlightAware Approximate
04:36AM 62.1104 158.7084 240° Southwest  Level FlightAware Approximate
04:37AM 62.0485 158.4789 240° Southwest  Level FlightAware Approximate
04:38AM 61.9863 158.2503 240° Southwest  Level FlightAware Approximate
04:39AM 61.9237 158.0226 240° Southwest  Level FlightAware Approximate
04:40AM 61.8607 157.7959 239° Southwest  Level FlightAware Approximate
04:41AM 61.7974 157.5701 239° Southwest  Level FlightAware Approximate
04:42AM 61.7337 157.3452 239° Southwest  Level FlightAware Approximate
04:43AM 61.6696 157.1213 239° Southwest  Level FlightAware Approximate
04:44AM 61.6051 156.8983 239° Southwest  Level FlightAware Approximate
04:45AM 61.5403 156.6762 238° Southwest  Level FlightAware Approximate
04:46AM 61.4751 156.4551 238° Southwest  Level FlightAware Approximate
04:47AM 61.4096 156.2348 238° Southwest  Level FlightAware Approximate
04:48AM 61.3437 156.0155 238° Southwest  Level FlightAware Approximate
04:49AM 61.2775 155.7972 238° Southwest  Level FlightAware Approximate
04:50AM 61.2109 155.5797 237° Southwest  Level FlightAware Approximate
04:51AM 61.1440 155.3632 237° Southwest  Level FlightAware Approximate
04:52AM 61.0767 155.1476 237° Southwest  Level FlightAware Approximate
04:53AM 61.0091 154.9329 237° Southwest  Level FlightAware Approximate
04:54AM 60.9412 154.7191 237° Southwest  Level FlightAware Approximate
04:55AM 60.8729 154.5063 236° Southwest  Level FlightAware Approximate
04:56AM 60.8042 154.2943 236° Southwest  Level FlightAware Approximate
04:57AM 60.7353 154.0833 236° Southwest  Level FlightAware Approximate
04:58AM 60.6660 153.8731 236° Southwest  Level FlightAware Approximate
04:59AM 60.5964 153.6639 236° Southwest  Level FlightAware Approximate
05:00AM 60.5264 153.4556 236° Southwest  Level FlightAware Approximate
05:01AM 60.4562 153.2481 235° Southwest  Level FlightAware Approximate
05:02AM 60.3856 153.0416 235° Southwest  Level FlightAware Approximate
05:03AM 60.3147 152.8360 235° Southwest  Level FlightAware Approximate
05:04AM 60.2435 152.6312 235° Southwest  Level FlightAware Approximate
05:05AM 60.1720 152.4274 235° Southwest  Level FlightAware Approximate
05:06AM 60.1001 152.2244 235° Southwest  Level FlightAware Approximate
05:07AM 60.0317 152.0329 234° Southwest  Level FlightAware Approximate
05:08AM 59.9631 151.8422 234° Southwest  Level FlightAware Approximate
05:09AM 59.8942 151.6522 234° Southwest  Level FlightAware Approximate
05:10AM 59.8250 151.4631 234° Southwest  Level FlightAware Approximate
05:11AM 59.7555 151.2747 234° Southwest  Level FlightAware Approximate
05:12AM 59.6858 151.0872 234° Southwest  Level FlightAware Approximate
05:13AM 59.6158 150.9004 233° Southwest  Level FlightAware Approximate
05:14AM 59.5456 150.7143 233° Southwest  Level FlightAware Approximate
05:15AM 59.4750 150.5291 233° Southwest  Level FlightAware Approximate
05:16AM 59.4043 150.3446 233° Southwest  Level FlightAware Approximate
05:17AM 59.3332 150.1609 233° Southwest  Level FlightAware Approximate
05:18AM 59.2619 149.9780 233° Southwest  Level FlightAware Approximate
05:19AM 59.1904 149.7958 232° Southwest  Level FlightAware Approximate
05:20AM 59.1185 149.6144 232° Southwest  Level FlightAware Approximate
05:21AM 59.0465 149.4338 232° Southwest  Level FlightAware Approximate
05:22AM 58.9742 149.2539 232° Southwest  Level FlightAware Approximate
05:23AM 58.9016 149.0748 232° Southwest  Level FlightAware Approximate
05:24AM 58.8288 148.8964 232° Southwest  Level FlightAware Approximate
05:25AM 58.7558 148.7188 231° Southwest  Level FlightAware Approximate
05:26AM 58.6825 148.5419 231° Southwest  Level FlightAware Approximate
05:27AM 58.6089 148.3658 230° Southwest  Level FlightAware Approximate
05:28AM 58.5336 148.1929 230° Southwest  Level FlightAware Approximate
05:29AM 58.4580 148.0207 230° Southwest  Level FlightAware Approximate
05:30AM 58.3822 147.8493 230° Southwest  Level FlightAware Approximate
05:31AM 58.3061 147.6786 230° Southwest  Level FlightAware Approximate
05:32AM 58.2298 147.5087 229° Southwest  Level FlightAware Approximate
05:33AM 58.1533 147.3395 229° Southwest  Level FlightAware Approximate
05:34AM 58.0766 147.1710 229° Southwest  Level FlightAware Approximate
05:35AM 57.9997 147.0032 229° Southwest  Level FlightAware Approximate
05:36AM 57.9225 146.8362 229° Southwest  Level FlightAware Approximate
05:37AM 57.8451 146.6699 229° Southwest  Level FlightAware Approximate
05:38AM 57.7675 146.5043 229° Southwest  Level FlightAware Approximate
05:39AM 57.6897 146.3394 228° Southwest  Level FlightAware Approximate
05:40AM 57.6117 146.1752 228° Southwest  Level FlightAware Approximate
05:41AM 57.5334 146.0117 228° Southwest  Level FlightAware Approximate
05:42AM 57.4550 145.8489 228° Southwest  Level FlightAware Approximate
05:43AM 57.3763 145.6868 228° Southwest  Level FlightAware Approximate
05:44AM 57.2974 145.5255 228° Southwest  Level FlightAware Approximate
05:45AM 57.2184 145.3647 228° Southwest  Level FlightAware Approximate
05:46AM 57.1391 145.2047 228° Southwest  Level FlightAware Approximate
05:47AM 57.0596 145.0454 227° Southwest  Level FlightAware Approximate
05:48AM 56.9799 144.8867 227° Southwest  Level FlightAware Approximate
05:49AM 56.9001 144.7288 227° Southwest  Level FlightAware Approximate
05:50AM 56.8200 144.5715 227° Southwest  Level FlightAware Approximate
05:51AM 56.7397 144.4149 227° Southwest  Level FlightAware Approximate
05:52AM 56.6592 144.2589 227° Southwest  Level FlightAware Approximate
05:53AM 56.5785 144.1036 227° Southwest  Level FlightAware Approximate
05:54AM 56.4977 143.9490 226° Southwest  Level FlightAware Approximate
05:55AM 56.4166 143.7950 226° Southwest  Level FlightAware Approximate
05:56AM 56.3354 143.6417 226° Southwest  Level FlightAware Approximate
05:57AM 56.2540 143.4891 226° Southwest  Level FlightAware Approximate
05:58AM 56.1724 143.3371 226° Southwest  Level FlightAware Approximate
05:59AM 56.0905 143.1857 226° Southwest  Level FlightAware Approximate
06:00AM 56.0086 143.0350 226° Southwest  Level FlightAware Approximate
06:01AM 55.9264 142.8849 265° West  Level FlightAware Approximate
06:02AM 55.9171 142.6876 225° Southwest  Level FlightAware Approximate
06:03AM 55.8339 142.5397 225° Southwest  Level FlightAware Approximate
06:04AM 55.7506 142.3923 225° Southwest  Level FlightAware Approximate
06:05AM 55.6670 142.2456 225° Southwest  Level FlightAware Approximate
06:06AM 55.5834 142.0995 225° Southwest  Level FlightAware Approximate
06:07AM 55.4995 141.9541 224° Southwest  Level FlightAware Approximate
06:08AM 55.4155 141.8092 224° Southwest  Level FlightAware Approximate
06:09AM 55.3312 141.6650 224° Southwest  Level FlightAware Approximate
06:10AM 55.2469 141.5214 224° Southwest  Level FlightAware Approximate
06:11AM 55.1623 141.3784 224° Southwest  Level FlightAware Approximate
06:12AM 55.0776 141.2360 224° Southwest  Level FlightAware Approximate
06:13AM 54.9927 141.0942 224° Southwest  Level FlightAware Approximate
06:14AM 54.9077 140.9530 224° Southwest  Level FlightAware Approximate
06:15AM 54.8225 140.8124 223° Southwest  Level FlightAware Approximate
06:16AM 54.7371 140.6723 223° Southwest  Level FlightAware Approximate
06:17AM 54.6516 140.5329 223° Southwest  Level FlightAware Approximate
06:18AM 54.5659 140.3941 223° Southwest  Level FlightAware Approximate
06:19AM 54.4801 140.2558 223° Southwest  Level FlightAware Approximate
06:20AM 54.3941 140.1182 223° Southwest  Level FlightAware Approximate
06:21AM 54.3080 139.9813 223° Southwest  Level FlightAware Approximate
06:22AM 54.2219 139.8450 222° Southwest  Level FlightAware Approximate
06:23AM 54.1351 139.7100 227° Southwest  Level FlightAware Approximate
06:24AM 54.0545 139.5647 227° Southwest  Level FlightAware Approximate
06:25AM 53.9736 139.4200 226° Southwest  Level FlightAware Approximate
06:26AM 53.8926 139.2758 226° Southwest  Level FlightAware Approximate
06:27AM 53.8114 139.1322 226° Southwest  Level FlightAware Approximate
06:28AM 53.7301 138.9891 226° Southwest  Level FlightAware Approximate
06:29AM 53.6486 138.8466 226° Southwest  Level FlightAware Approximate
06:30AM 53.5669 138.7047 226° Southwest  Level FlightAware Approximate
06:31AM 53.4850 138.5633 226° Southwest  Level FlightAware Approximate
06:32AM 53.4030 138.4224 226° Southwest  Level FlightAware Approximate
06:33AM 53.3208 138.2821 225° Southwest  Level FlightAware Approximate
06:34AM 53.2384 138.1423 225° Southwest  Level FlightAware Approximate
06:35AM 53.1559 138.0031 225° Southwest  Level FlightAware Approximate
06:36AM 53.0732 137.8644 225° Southwest  Level FlightAware Approximate
06:37AM 52.9904 137.7262 225° Southwest  Level FlightAware Approximate
06:38AM 52.9074 137.5886 225° Southwest  Level FlightAware Approximate
06:39AM 52.8242 137.4515 225° Southwest  Level FlightAware Approximate
06:40AM 52.7409 137.3149 225° Southwest  Level FlightAware Approximate
06:41AM 52.6575 137.1788 225° Southwest  Level FlightAware Approximate
06:42AM 52.5738 137.0433 224° Southwest  Level FlightAware Approximate
06:43AM 52.4901 136.9082 224° Southwest  Level FlightAware Approximate
06:44AM 52.4061 136.7737 224° Southwest  Level FlightAware Approximate
06:45AM 52.3221 136.6397 224° Southwest  Level FlightAware Approximate
06:46AM 52.2378 136.5062 224° Southwest  Level FlightAware Approximate
06:47AM 52.1534 136.3732 224° Southwest  Level FlightAware Approximate
06:48AM 52.0689 136.2407 224° Southwest  Level FlightAware Approximate
06:49AM 51.9842 136.1087 224° Southwest  Level FlightAware Approximate
06:50AM 51.8994 135.9773 224° Southwest  Level FlightAware Approximate
06:51AM 51.8144 135.8463 224° Southwest  Level FlightAware Approximate
06:52AM 51.7293 135.7158 223° Southwest  Level FlightAware Approximate
06:53AM 51.6440 135.5858 223° Southwest  Level FlightAware Approximate
06:54AM 51.5586 135.4563 223° Southwest  Level FlightAware Approximate
06:55AM 51.4731 135.3272 223° Southwest  Level FlightAware Approximate
06:56AM 51.3874 135.1987 223° Southwest  Level FlightAware Approximate
06:57AM 51.3016 135.0706 223° Southwest  Level FlightAware Approximate
06:58AM 51.2156 134.9430 223° Southwest  Level FlightAware Approximate
06:59AM 51.1295 134.8159 223° Southwest  Level FlightAware Approximate
07:00AM 51.0432 134.6893 223° Southwest  Level FlightAware Approximate
07:01AM 50.9568 134.5631 223° Southwest  Level FlightAware Approximate
07:02AM 50.8703 134.4374 222° Southwest  Level FlightAware Approximate
07:03AM 50.7837 134.3121 222° Southwest  Level FlightAware Approximate
07:04AM 50.6969 134.1874 222° Southwest  Level FlightAware Approximate
07:05AM 50.6100 134.0630 222° Southwest  Level FlightAware Approximate
07:06AM 50.5229 133.9392 222° Southwest  Level FlightAware Approximate
07:07AM 50.4357 133.8158 222° Southwest  Level FlightAware Approximate
07:08AM 50.3484 133.6929 222° Southwest  Level FlightAware Approximate
07:09AM 50.2610 133.5704 222° Southwest  Level FlightAware Approximate
07:10AM 50.1734 133.4483 222° Southwest  Level FlightAware Approximate
07:11AM 50.0857 133.3267 222° Southwest  Level FlightAware Approximate
07:12AM 49.9979 133.2056 221° Southwest  Level FlightAware Approximate
07:13AM 49.9100 133.0849 221° Southwest  Level FlightAware Approximate
07:14AM 49.8219 132.9646 221° Southwest  Level FlightAware Approximate
07:15AM 49.7337 132.8448 221° Southwest  Level FlightAware Approximate
07:16AM 49.6454 132.7254 221° Southwest  Level FlightAware Approximate
07:17AM 49.5569 132.6064 221° Southwest  Level FlightAware Approximate
07:18AM 49.4684 132.4879 221° Southwest  Level FlightAware Approximate
07:19AM 49.3797 132.3698 221° Southwest  Level FlightAware Approximate
07:20AM 49.2909 132.2521 221° Southwest  Level FlightAware Approximate
07:21AM 49.2020 132.1349 221° Southwest  Level FlightAware Approximate
07:22AM 49.1129 132.0180 221° Southwest  Level FlightAware Approximate
07:23AM 49.0238 131.9016 221° Southwest  Level FlightAware Approximate
07:24AM 48.9345 131.7856 220° Southwest  Level FlightAware Approximate
07:25AM 48.8451 131.6700 220° Southwest  Level FlightAware Approximate
07:26AM 48.7556 131.5549 230° Southwest  Level FlightAware Approximate
07:27AM 48.6794 131.4197 229° Southwest  Level FlightAware Approximate
07:28AM 48.6030 131.2849 229° Southwest  Level FlightAware Approximate
07:29AM 48.5265 131.1505 229° Southwest  Level FlightAware Approximate
07:30AM 48.4497 131.0166 229° Southwest  Level FlightAware Approximate
07:31AM 48.3729 130.8830 229° Southwest  Level FlightAware Approximate
07:32AM 48.2959 130.7498 229° Southwest  Level FlightAware Approximate
07:33AM 48.2187 130.6171 229° Southwest  Level FlightAware Approximate
07:34AM 48.1414 130.4847 229° Southwest  Level FlightAware Approximate
07:35AM 48.0639 130.3528 229° Southwest  Level FlightAware Approximate
07:36AM 47.9863 130.2212 229° Southwest  Level FlightAware Approximate
07:37AM 47.9085 130.0901 228° Southwest  Level FlightAware Approximate
07:38AM 47.8306 129.9593 228° Southwest  Level FlightAware Approximate
07:39AM 47.7526 129.8289 228° Southwest  Level FlightAware Approximate
07:40AM 47.6744 129.6989 228° Southwest  Level FlightAware Approximate
07:41AM 47.5960 129.5693 228° Southwest  Level FlightAware Approximate
07:42AM 47.5175 129.4401 228° Southwest  Level FlightAware Approximate
07:43AM 47.4388 129.3113 228° Southwest  Level FlightAware Approximate
07:44AM 47.3601 129.1829 235° Southwest  Level FlightAware Approximate
07:45AM 47.2924 129.0414 235° Southwest  Level FlightAware Approximate
07:46AM 47.2246 128.9003 235° Southwest  Level FlightAware Approximate
07:47AM 47.1567 128.7596 235° Southwest  Level FlightAware Approximate
07:48AM 47.0885 128.6192 234° Southwest  Level FlightAware Approximate
07:49AM 47.0202 128.4792 234° Southwest  Level FlightAware Approximate
07:50AM 46.9517 128.3395 234° Southwest  Level FlightAware Approximate
07:51AM 46.8831 128.2002 234° Southwest  Level FlightAware Approximate
07:52AM 46.8143 128.0613 234° Southwest  Level FlightAware Approximate
07:53AM 46.7453 127.9227 234° Southwest  Level FlightAware Approximate
07:54AM 46.6761 127.7845 234° Southwest  Level FlightAware Approximate
07:55AM 46.6068 127.6466 234° Southwest  Level FlightAware Approximate
07:56AM 46.5373 127.5091 234° Southwest  Level FlightAware Approximate
07:57AM 46.4677 127.3719 234° Southwest  Level FlightAware Approximate
07:58AM 46.3979 127.2351 233° Southwest  Level FlightAware Approximate
07:59AM 46.3279 127.0986 233° Southwest  Level FlightAware Approximate
08:00AM 46.2578 126.9625 233° Southwest  Level FlightAware Approximate
08:01AM 46.1875 126.8267 233° Southwest  Level FlightAware Approximate
08:02AM 46.1170 126.6913 233° Southwest  Level FlightAware Approximate
08:03AM 46.0464 126.5562 233° Southwest  Level FlightAware Approximate
08:04AM 45.9756 126.4214 233° Southwest  Level FlightAware Approximate
08:05AM 45.9047 126.2871 233° Southwest  Level FlightAware Approximate
08:06AM 45.8336 126.1530 233° Southwest  Level FlightAware Approximate
08:07AM 45.7623 126.0193 233° Southwest  Level FlightAware Approximate
08:08AM 45.6909 125.8859 232° Southwest  Level FlightAware Approximate
08:09AM 45.6194 125.7529 232° Southwest  Level FlightAware Approximate
08:10AM 45.5476 125.6202 232° Southwest  Level FlightAware Approximate
08:11AM 45.4758 125.4879 232° Southwest  Level FlightAware Approximate
08:12AM 45.4038 125.3559 232° Southwest  Level FlightAware Approximate
08:13AM 45.3316 125.2242 232° Southwest  Level FlightAware Approximate
08:14AM 45.2593 125.0929 232° Southwest  Level FlightAware Approximate
08:15AM 45.1868 124.9619 232° Southwest  Level FlightAware Approximate
08:16AM 45.1142 124.8312 233° Southwest  Level FlightAware Approximate
08:17AM 45.0436 124.6985 233° Southwest  Level FlightAware Approximate
08:18AM 44.9729 124.5660 233° Southwest  Level FlightAware Approximate
08:19AM 44.9020 124.4340 233° Southwest  Level FlightAware Approximate
08:20AM 44.8310 124.3022 233° Southwest  Level FlightAware Approximate
08:21AM 44.7598 124.1708 233° Southwest  Level FlightAware Approximate
08:22AM 44.6885 124.0396 233° Southwest  Level FlightAware Approximate
08:23AM 44.6170 123.9089 232° Southwest  Level FlightAware Approximate
08:24AM 44.5454 123.7784 232° Southwest  Level FlightAware Approximate
08:25AM 44.4736 123.6482 232° Southwest  Level FlightAware Approximate
08:26AM 44.4017 123.5184 232° Southwest  Level FlightAware Approximate
08:27AM 44.3296 123.3889 232° Southwest  Level FlightAware Approximate
08:28AM 44.2574 123.2597 232° Southwest  Level FlightAware Approximate
08:29AM 44.1851 123.1308 232° Southwest  Level FlightAware Approximate
08:30AM 44.1125 123.0023 232° Southwest  Level FlightAware Approximate
08:31AM 44.0399 122.8740 232° Southwest  Level FlightAware Approximate
08:32AM 43.9672 122.7463 232° Southwest  Level FlightAware Approximate
08:33AM 43.8944 122.6188 232° Southwest  Level FlightAware Approximate
08:34AM 43.8214 122.4917 231° Southwest  Level FlightAware Approximate
08:35AM 43.7483 122.3649 231° Southwest  Level FlightAware Approximate
08:36AM 43.6751 122.2384 231° Southwest  Level FlightAware Approximate
08:37AM 43.6017 122.1122 231° Southwest  Level FlightAware Approximate
08:38AM 43.5282 121.9863 231° Southwest  Level FlightAware Approximate
08:39AM 43.4545 121.8607 231° Southwest  Level FlightAware Approximate
08:40AM 43.3807 121.7355 231° Southwest  Level FlightAware Approximate
08:41AM 43.3068 121.6105 231° Southwest  Level FlightAware Approximate
08:42AM 43.2327 121.4859 231° Southwest  Level FlightAware Approximate
08:43AM 43.1585 121.3615 231° Southwest  Level FlightAware Approximate
08:44AM 43.0842 121.2374 231° Southwest  Level FlightAware Approximate
08:45AM 43.0097 121.1137 230° Southwest  Level FlightAware Approximate
08:46AM 42.9351 120.9902 230° Southwest  Level FlightAware Approximate
08:47AM 42.8604 120.8671 230° Southwest  Level FlightAware Approximate
08:48AM 42.7855 120.7442 230° Southwest  Level FlightAware Approximate
08:49AM 42.7105 120.6217 230° Southwest  Level FlightAware Approximate
08:50AM 42.6353 120.4994 230° Southwest  Level FlightAware Approximate
08:51AM 42.5601 120.3774 230° Southwest  Level FlightAware Approximate
08:52AM 42.4847 120.2558 230° Southwest  Level FlightAware Approximate
08:53AM 42.4092 120.1344 230° Southwest  Level FlightAware Approximate
08:54AM 42.3335 120.0133 230° Southwest  Level FlightAware Approximate
08:55AM 42.2578 119.8925 230° Southwest  Level FlightAware Approximate
08:56AM 42.1819 119.7720 230° Southwest  Level FlightAware Approximate
08:57AM 42.1058 119.6518 230° Southwest  Level FlightAware Approximate
08:58AM 42.0297 119.5318 229° Southwest  Level FlightAware Approximate
08:59AM 41.9534 119.4122 229° Southwest  Level FlightAware Approximate
09:00AM 41.8770 119.2928 229° Southwest  Level FlightAware Approximate
09:01AM 41.8005 119.1738 229° Southwest  Level FlightAware Approximate
09:02AM 41.7239 119.0550 229° Southwest  Level FlightAware Approximate
09:03AM 41.6471 118.9365 229° Southwest  Level FlightAware Approximate
09:04AM 41.5702 118.8183 229° Southwest  Level FlightAware Approximate
09:05AM 41.4932 118.7003 229° Southwest  Level FlightAware Approximate
09:06AM 41.4160 118.5826 229° Southwest  Level FlightAware Approximate
09:07AM 41.3388 118.4653 229° Southwest  Level FlightAware Approximate
09:08AM 41.2614 118.3482 229° Southwest  Level FlightAware Approximate
09:09AM 41.1839 118.2313 229° Southwest  Level FlightAware Approximate
09:10AM 41.1063 118.1148 228° Southwest  Level FlightAware Approximate
09:11AM 41.0286 117.9985 181° South  Level FlightAware Approximate
09:12AM 40.9195 117.9959 232° Southwest  Level FlightAware Approximate
09:13AM 40.8473 117.8739 230° Southwest  Level FlightAware Approximate
09:14AM 40.7729 117.7578 233° Southwest  Level FlightAware Approximate
09:15AM 40.7025 117.6343 232° Southwest  Level FlightAware Approximate
09:16AM 40.6300 117.5129 233° Southwest  Level FlightAware Approximate
09:17AM 40.5601 117.3891 231° Southwest  Level FlightAware Approximate
09:18AM 40.4870 117.2687 233° Southwest  Level FlightAware Approximate
09:19AM 40.4166 117.1456 231° Southwest  Level FlightAware Approximate
09:20AM 40.3425 117.0265 234° Southwest  Level FlightAware Approximate
09:21AM 40.2734 116.9035 228° Southwest  Level FlightAware Approximate
09:22AM 40.1967 116.7900 230° Southwest  Level FlightAware Approximate
09:23AM 40.1227 116.6742 231° Southwest  Level FlightAware Approximate
09:24AM 40.0667 116.5833 North  Level FlightAware Approximate
09:25AM 40.1835 116.5940 184° South  Level Estimated
09:26AM 40.0667 116.5833 North  Level FlightAware Approximate
09:27AM 40.1835 116.5940 184° South  Level Estimated
09:28AM 40.0667 116.5833 North  Level FlightAware Approximate
09:29AM 40.1835 116.5940 184° South  Level Estimated
09:30AM 40.0667 116.5833 North  Level FlightAware Approximate
09:31AM 40.1835 116.5940 184° South  Level Estimated
09:32AM 40.0667 116.5833 North  Level FlightAware Approximate
09:33AM 40.1835 116.5940 184° South  Level Estimated
09:34AM 40.0667 116.5833 North  Level FlightAware Approximate
09:35AM 40.1835 116.5940 184° South  Level Estimated
09:36AM 40.0667 116.5833 North  Level FlightAware Approximate
09:37AM 40.1835 116.5940 184° South  Level Estimated
09:38AM 40.0667 116.5833 North  Level FlightAware Approximate
09:39AM 40.1835 116.5940 184° South  Level Estimated
09:40AM 40.0667 116.5833 184° South  Level FlightAware Approximate